Terminal Aerodrome Forecast
Issued by NWS

Home | Current Version | Previous Version | Text Only | Print | Product List | Glossary On
Versions: 1 2 3 4 5 6 7 8 9 10 11 12 13 14 15 16 17 18 19 20 21 22
000
FTUS43 KICT 301733
TAFHUT
TAF
KHUT 301733Z 3018/3118 35014KT P6SM BKN025
     FM302000 36013KT P6SM SCT020 BKN035
     FM310100 02006KT P6SM SCT020
     FM310900 36004KT 5SM BR SCT010
     FM311600 11007KT P6SM SCT030=

USA.gov is the U.S. government's official web portal to all federal, state and local government web resources and services.